Map

Track Data

SID SEASON NUMBER BASIN SUBBASIN NAME ISO_TIME NATURE LAT LON WMO_WIND WMO_PRES WMO_AGENCY TRACK_TYPE DIST2LAND LANDFALL IFLAG USA_AGENCY USA_ATCF_ID USA_LAT USA_LON USA_RECORD USA_STATUS USA_WIND USA_PRES USA_SSHS USA_R34_NE USA_R34_SE USA_R34_SW USA_R34_NW USA_R50_NE USA_R50_SE USA_R50_SW USA_R50_NW USA_R64_NE USA_R64_SE USA_R64_SW USA_R64_NW USA_POCI USA_ROCI USA_RMW USA_EYE TOKYO_LAT TOKYO_LON TOKYO_GRADE TOKYO_WIND TOKYO_PRES TOKYO_R50_DIR TOKYO_R50_LONG TOKYO_R50_SHORT TOKYO_R30_DIR TOKYO_R30_LONG TOKYO_R30_SHORT TOKYO_LAND CMA_LAT CMA_LON CMA_CAT CMA_WIND CMA_PRES HKO_LAT HKO_LON HKO_CAT HKO_WIND HKO_PRES NEWDELHI_LAT NEWDELHI_LON NEWDELHI_GRADE NEWDELHI_WIND NEWDELHI_PRES NEWDELHI_CI NEWDELHI_DP NEWDELHI_POCI REUNION_LAT REUNION_LON REUNION_TYPE REUNION_WIND REUNION_PRES REUNION_TNUM REUNION_CI REUNION_RMW REUNION_R34_NE REUNION_R34_SE REUNION_R34_SW REUNION_R34_NW REUNION_R50_NE REUNION_R50_SE REUNION_R50_SW REUNION_R50_NW REUNION_R64_NE REUNION_R64_SE REUNION_R64_SW REUNION_R64_NW BOM_LAT BOM_LON BOM_TYPE BOM_WIND BOM_PRES BOM_TNUM BOM_CI BOM_RMW BOM_R34_NE BOM_R34_SE BOM_R34_SW BOM_R34_NW BOM_R50_NE BOM_R50_SE BOM_R50_SW BOM_R50_NW BOM_R64_NE BOM_R64_SE BOM_R64_SW BOM_R64_NW BOM_ROCI BOM_POCI BOM_EYE BOM_POS_METHOD BOM_PRES_METHOD NADI_LAT NADI_LON NADI_CAT NADI_WIND NADI_PRES WELLINGTON_LAT WELLINGTON_LON WELLINGTON_WIND WELLINGTON_PRES DS824_LAT DS824_LON DS824_STAGE DS824_WIND DS824_PRES TD9636_LAT TD9636_LON TD9636_STAGE TD9636_WIND TD9636_PRES TD9635_LAT TD9635_LON TD9635_WIND TD9635_PRES TD9635_ROCI NEUMANN_LAT NEUMANN_LON NEUMANN_CLASS NEUMANN_WIND NEUMANN_PRES MLC_LAT MLC_LON MLC_CLASS MLC_WIND MLC_PRES USA_GUST BOM_GUST BOM_GUST_PER REUNION_GUST REUNION_GUST_PER USA_SEAHGT USA_SEARAD_NE USA_SEARAD_SE USA_SEARAD_SW USA_SEARAD_NW STORM_SPEED STORM_DIR
1999096N10136 1999 28 WP MM NOT_NAMED 1999-04-05 18:00:00 NR 9.80000 135.800 main 1038 990 O_____________ jtwc_wp WP031999 9.80000 135.800 20 -1 11 297
1999096N10136 1999 28 WP MM NOT_NAMED 1999-04-05 21:00:00 NR 10.0501 135.295 main 993 947 P_____________ WP031999 10.0501 135.295 20 -1 11 297
1999096N10136 1999 28 WP MM NOT_NAMED 1999-04-06 00:00:00 NR 10.3000 134.800 main 947 908 O_____________ jtwc_wp WP031999 10.3000 134.800 20 -1 11 298
1999096N10136 1999 28 WP MM NOT_NAMED 1999-04-06 03:00:00 NR 10.5500 134.327 main 898 862 P_____________ WP031999 10.5500 134.327 22 -1 10 299
1999096N10136 1999 28 WP MM NOT_NAMED 1999-04-06 06:00:00 NR 10.8000 133.900 main 862 824 O_____________ jtwc_wp WP031999 10.8000 133.900 25 -1 10 301
1999096N10136 1999 28 WP MM NOT_NAMED 1999-04-06 09:00:00 NR 11.0350 133.490 main 824 798 P_____________ WP031999 11.0350 133.490 25 -1 9 306
1999096N10136 1999 28 WP MM NOT_NAMED 1999-04-06 12:00:00 NR 11.3000 133.200 main 801 794 O_____________ jtwc_wp WP031999 11.3000 133.200 25 -1 7 328
1999096N10136 1999 28 WP MM NOT_NAMED 1999-04-06 15:00:00 NR 11.6424 133.105 main 799 799 P_____________ WP031999 11.6424 133.105 25 -1 7 352
1999096N10136 1999 28 WP MM NOT_NAMED 1999-04-06 18:00:00 NR 12.0000 133.100 main 803 803 O_____________ jtwc_wp WP031999 12.0000 133.100 25 -1 7 356
1999096N10136 1999 28 WP MM NOT_NAMED 1999-04-06 21:00:00 NR 12.3375 133.057 main 808 799 P_____________ WP031999 12.3375 133.057 25 -1 6 351
1999096N10136 1999 28 WP MM NOT_NAMED 1999-04-07 00:00:00 NR 12.6000 133.000 main 804 796 O_____________ jtwc_wp WP031999 12.6000 133.000 25 -1 4 341
1999096N10136 1999 28 WP MM NOT_NAMED 1999-04-07 03:00:00 NR 12.7375 132.915 main 796 788 P_____________ WP031999 12.7375 132.915 27 -1 3 316
1999096N10136 1999 28 WP MM NOT_NAMED 1999-04-07 06:00:00 NR 12.8000 132.800 main 788 777 O_____________ jtwc_wp WP031999 12.8000 132.800 30 -1 3 297
1999096N10136 1999 28 WP MM NOT_NAMED 1999-04-07 09:00:00 NR 12.8725 132.643 main 770 759 P_____________ WP031999 12.8725 132.643 30 -1 3 289
1999096N10136 1999 28 WP MM NOT_NAMED 1999-04-07 12:00:00 NR 12.9000 132.500 main 759 759 O_____________ jtwc_wp WP031999 12.9000 132.500 30 -1 2 273
1999096N10136 1999 28 WP MM NOT_NAMED 1999-04-07 15:00:00 NR 12.8799 132.488 main 759 746 P_____________ WP031999 12.8799 132.488 30 -1 1 223
1999096N10136 1999 28 WP MM NOT_NAMED 1999-04-07 18:00:00 NR 12.8000 132.400 main 746 711 O_____________ jtwc_wp WP031999 12.8000 132.400 30 -1 5 242
1999096N10136 1999 28 WP MM NOT_NAMED 1999-04-07 21:00:00 NR 12.6501 132.052 main 711 653 P_____________ WP031999 12.6501 132.052 30 -1 8 249
1999096N10136 1999 28 WP MM NOT_NAMED 1999-04-08 00:00:00 NR 12.5000 131.600 main 653 619 O_____________ jtwc_wp WP031999 12.5000 131.600 30 -1 8 254
1999096N10136 1999 28 WP MM NOT_NAMED 1999-04-08 03:00:00 NR 12.4273 131.230 main 608 566 P_____________ WP031999 12.4273 131.230 30 -1 8 263
1999096N10136 1999 28 WP MM NOT_NAMED 1999-04-08 06:00:00 NR 12.4000 130.800 main 566 514 O_____________ jtwc_wp WP031999 12.4000 130.800 30 -1 10 267
1999096N10136 1999 28 WP MM NOT_NAMED 1999-04-08 09:00:00 NR 12.3775 130.230 main 504 442 P_____________ WP031999 12.3775 130.230 30 -1 12 270
1999096N10136 1999 28 WP MM NOT_NAMED 1999-04-08 12:00:00 NR 12.4000 129.600 main 442 392 O_____________ jtwc_wp WP031999 12.4000 129.600 30 -1 12 274
1999096N10136 1999 28 WP MM NOT_NAMED 1999-04-08 15:00:00 NR 12.4620 129.045 main 381 318 P_____________ WP031999 12.4620 129.045 32 -1 12 280
1999096N10136 1999 28 WP MM NOT_NAMED 1999-04-08 18:00:00 NR 12.6000 128.400 main 318 230 O_____________ jtwc_wp WP031999 12.6000 128.400 35 0 16 285
1999096N10136 1999 28 WP MM NOT_NAMED 1999-04-08 21:00:00 NR 12.8656 127.486 main 230 156 P_____________ WP031999 12.8656 127.486 32 -1 18 286
1999096N10136 1999 28 WP MM NOT_NAMED 1999-04-09 00:00:00 NR 13.1000 126.600 main 156 116 O_____________ jtwc_wp WP031999 13.1000 126.600 30 -1 14 281
1999096N10136 1999 28 WP MM NOT_NAMED 1999-04-09 03:00:00 NR 13.1295 126.040 main 109 79 P_____________ WP031999 13.1295 126.040 30 -1 10 270
1999096N10136 1999 28 WP MM NOT_NAMED 1999-04-09 06:00:00 NR 13.1000 125.600 main 79 67 O_____________ jtwc_wp WP031999 13.1000 125.600 30 -1 9 270
1999096N10136 1999 28 WP MM NOT_NAMED 1999-04-09 09:00:00 NR 13.1275 125.085 main 67 54 P_____________ WP031999 13.1275 125.085 30 -1 10 276
1999096N10136 1999 28 WP MM NOT_NAMED 1999-04-09 12:00:00 NR 13.2000 124.600 main 54 22 O_____________ jtwc_wp WP031999 13.2000 124.600 30 -1 9 283
1999096N10136 1999 28 WP MM NOT_NAMED 1999-04-09 15:00:00 NR 13.3275 124.163 main 22 15 P_____________ WP031999 13.3275 124.163 27 -1 8 291
1999096N10136 1999 28 WP MM NOT_NAMED 1999-04-09 18:00:00 NR 13.5000 123.800 main 15 0 O_____________ jtwc_wp WP031999 13.5000 123.800 25 -1 7 301
1999096N10136 1999 28 WP MM NOT_NAMED 1999-04-09 21:00:00 NR 13.6950 123.525 main 0 0 P_____________ WP031999 13.6950 123.525 22 -1 6 309
1999096N10136 1999 28 WP MM NOT_NAMED 1999-04-10 00:00:00 NR 13.9000 123.300 main 0 O_____________ jtwc_wp WP031999 13.9000 123.300 20 -1 6 313

Digital Typhoon Data and Search

About IBTrACS Database

This database is a web-friendly format of International Best Track Archive for Climate Stewardship (IBTrACS), a global best track data archive curated by NOAA dating back to 1842.

Updated: 2021-10-08